Time;durP1;ratioP1;P1;durP2;ratioP2;P2;SDS_P1;SDS_P2;PMS_P1;PMS_P2;Temp;Humidity;BMP_temperature;BMP_pressure;BME280_temperature;BME280_humidity;BME280_pressure;Samples;Min_cycle;Max_cycle;Signal;HPM_P1;HPM_P2
2023/10/22 00:00:48;;;;;;;5.60;1.20;;;;;;;9.84;100.00;98937.84;4990502;28;20717;-71
2023/10/22 00:03:14;;;;;;;7.00;1.30;;;;;;;9.90;100.00;98935.75;5003460;28;20301;-71
2023/10/22 00:05:40;;;;;;;2.50;1.40;;;;;;;9.91;100.00;98935.66;4993836;28;20188;-71
2023/10/22 00:08:05;;;;;;;2.83;1.70;;;;;;;9.83;100.00;98943.09;4994880;28;20171;-71
2023/10/22 00:10:30;;;;;;;3.17;1.50;;;;;;;9.85;100.00;98942.03;4986532;28;20300;-71
2023/10/22 00:12:56;;;;;;;1.60;1.13;;;;;;;9.90;100.00;98948.59;5005370;28;20267;-71
2023/10/22 00:15:22;;;;;;;2.87;1.57;;;;;;;9.84;100.00;98944.72;4994721;28;20179;-72
2023/10/22 00:17:47;;;;;;;4.90;1.40;;;;;;;9.74;100.00;98946.31;4994446;28;20218;-71
2023/10/22 00:20:12;;;;;;;6.90;1.60;;;;;;;9.76;100.00;98952.97;4984458;28;20594;-72
2023/10/22 00:22:38;;;;;;;2.83;1.50;;;;;;;9.81;100.00;98956.03;4992602;28;20198;-71
2023/10/22 00:25:05;;;;;;;1.47;1.10;;;;;;;9.73;100.00;98971.16;4993472;28;20194;-71
2023/10/22 00:27:32;;;;;;;3.20;1.30;;;;;;;9.64;100.00;98972.59;4993140;28;20644;-71
2023/10/22 00:29:57;;;;;;;4.43;1.30;;;;;;;9.71;100.00;98973.00;4993818;28;20203;-71
2023/10/22 00:32:23;;;;;;;4.40;1.10;;;;;;;9.68;100.00;98970.66;4998891;28;20251;-71
2023/10/22 00:34:48;;;;;;;3.63;1.30;;;;;;;9.67;100.00;98971.56;4993273;28;20553;-71
2023/10/22 00:37:13;;;;;;;2.97;1.60;;;;;;;9.59;100.00;98974.69;4994263;28;20195;-71
2023/10/22 00:39:39;;;;;;;2.30;1.27;;;;;;;9.59;100.00;98976.41;4992914;28;20179;-71
2023/10/22 00:42:04;;;;;;;4.50;1.53;;;;;;;9.58;100.00;98979.91;4998432;28;20313;-72
2023/10/22 00:44:29;;;;;;;3.23;1.20;;;;;;;9.53;100.00;98983.59;4982684;28;20171;-72
2023/10/22 00:46:55;;;;;;;4.03;1.60;;;;;;;9.45;100.00;98985.88;4993927;28;20218;-71
2023/10/22 00:49:20;;;;;;;3.83;1.20;;;;;;;9.32;100.00;98975.63;4994396;28;20187;-71
2023/10/22 00:51:46;;;;;;;2.00;1.37;;;;;;;9.25;100.00;98976.13;4996513;28;20288;-71
2023/10/22 00:54:14;;;;;;;2.73;1.20;;;;;;;9.40;100.00;98967.38;4992752;28;20222;-71
2023/10/22 00:56:41;;;;;;;3.07;1.43;;;;;;;9.43;100.00;98968.94;4992278;28;20179;-71
2023/10/22 00:59:07;;;;;;;3.77;1.30;;;;;;;9.42;100.00;98967.31;4992640;28;20206;-72
2023/10/22 01:01:32;;;;;;;2.97;1.33;;;;;;;9.39;100.00;98972.63;4984960;28;20673;-72
2023/10/22 01:03:58;;;;;;;2.53;1.20;;;;;;;9.34;100.00;98970.38;4997691;28;20602;-72
2023/10/22 01:06:23;;;;;;;2.77;1.03;;;;;;;9.37;100.00;98970.19;4992538;28;20216;-72
2023/10/22 01:08:49;;;;;;;7.13;1.77;;;;;;;9.46;100.00;98964.41;4993507;28;20216;-72
2023/10/22 01:11:15;;;;;;;4.57;1.30;;;;;;;9.55;100.00;98962.16;4985397;28;20341;-72
2023/10/22 01:13:40;;;;;;;7.50;1.50;;;;;;;9.58;100.00;98967.91;4991868;28;20180;-73
2023/10/22 01:16:08;;;;;;;6.20;1.30;;;;;;;9.55;100.00;98968.13;4993702;28;20241;-73
2023/10/22 01:18:34;;;;;;;6.27;1.47;;;;;;;9.57;100.00;98968.81;4992308;28;20175;-72
2023/10/22 01:20:59;;;;;;;4.90;1.30;;;;;;;9.65;100.00;98983.69;4984537;28;20245;-71
2023/10/22 01:23:25;;;;;;;4.73;1.53;;;;;;;9.64;100.00;98982.06;5001217;28;20184;-70
2023/10/22 01:25:50;;;;;;;2.83;1.17;;;;;;;9.61;100.00;98974.56;4993377;28;20183;-72
2023/10/22 01:28:16;;;;;;;7.13;1.47;;;;;;;9.66;100.00;98981.03;4993445;28;20183;-72
2023/10/22 01:30:41;;;;;;;3.87;1.20;;;;;;;9.65;100.00;98983.69;4987561;28;20294;-72
2023/10/22 01:33:07;;;;;;;5.90;1.30;;;;;;;9.61;100.00;98995.94;5003284;28;20299;-72
2023/10/22 01:35:32;;;;;;;5.27;1.20;;;;;;;9.60;100.00;98983.19;4993018;28;20195;-70
2023/10/22 01:37:57;;;;;;;2.90;1.23;;;;;;;9.56;100.00;98992.84;4993265;28;20187;-71
2023/10/22 01:40:23;;;;;;;5.03;1.50;;;;;;;9.57;100.00;98984.22;4984592;28;20311;-71
2023/10/22 01:42:48;;;;;;;4.43;1.60;;;;;;;9.53;100.00;98993.88;5004829;28;20236;-71
2023/10/22 01:45:14;;;;;;;6.87;1.60;;;;;;;9.55;100.00;99001.50;4974702;28;20722;-71
2023/10/22 01:47:39;;;;;;;4.07;1.83;;;;;;;9.55;100.00;98996.34;4991920;28;20183;-71
2023/10/22 01:50:06;;;;;;;3.63;1.40;;;;;;;9.33;100.00;98991.84;4982100;28;20191;-70
2023/10/22 01:52:31;;;;;;;2.50;1.50;;;;;;;9.30;100.00;98992.03;5006320;28;20197;-72
2023/10/22 01:54:57;;;;;;;3.87;1.50;;;;;;;9.19;100.00;98997.88;4992852;28;20264;-72
2023/10/22 01:57:23;;;;;;;3.73;1.27;;;;;;;9.04;100.00;98992.03;4992908;28;20183;-72
2023/10/22 01:59:48;;;;;;;4.40;1.57;;;;;;;8.97;100.00;98996.75;4992602;28;20618;-72
2023/10/22 02:02:14;;;;;;;2.80;1.20;;;;;;;8.81;100.00;99002.06;4997063;28;20321;-72
2023/10/22 02:04:39;;;;;;;4.30;1.40;;;;;;;8.66;100.00;98997.94;4992398;28;20238;-72
2023/10/22 02:07:05;;;;;;;5.73;1.53;;;;;;;8.66;100.00;99003.06;4992830;28;20179;-73
2023/10/22 02:09:30;;;;;;;3.93;1.43;;;;;;;8.68;100.00;99004.59;4992575;28;20864;-73
2023/10/22 02:11:56;;;;;;;6.57;1.80;;;;;;;8.61;100.00;98998.22;4995880;28;20692;-73
2023/10/22 02:14:21;;;;;;;3.23;1.10;;;;;;;8.70;100.00;99004.50;4991088;28;20223;-73
2023/10/22 02:16:46;;;;;;;7.30;1.47;;;;;;;8.81;100.00;99006.38;4992571;28;20195;-73
2023/10/22 02:19:12;;;;;;;3.90;1.20;;;;;;;8.88;100.00;98998.16;4991327;28;20199;-73
2023/10/22 02:21:37;;;;;;;4.40;1.40;;;;;;;8.95;100.00;98996.00;4983078;28;20250;-72
2023/10/22 02:24:03;;;;;;;8.07;2.07;;;;;;;8.96;100.00;99002.78;4991076;28;20179;-72
2023/10/22 02:26:28;;;;;;;4.17;1.43;;;;;;;9.08;100.00;98998.63;4992214;28;20244;-73
2023/10/22 02:28:53;;;;;;;3.20;1.20;;;;;;;9.16;100.00;99010.94;4992312;28;20212;-73
2023/10/22 02:31:19;;;;;;;6.13;1.40;;;;;;;9.09;100.00;99009.69;4991217;28;20226;-72
2023/10/22 02:33:44;;;;;;;5.23;1.40;;;;;;;9.19;100.00;99016.69;4996348;28;20257;-72
2023/10/22 02:36:10;;;;;;;4.80;1.50;;;;;;;9.22;100.00;99025.09;4992396;28;20540;-71
2023/10/22 02:38:38;;;;;;;5.00;1.40;;;;;;;9.23;100.00;99021.59;4990448;28;20180;-72
2023/10/22 02:41:04;;;;;;;3.67;1.33;;;;;;;9.25;100.00;99018.00;4984224;28;20235;-72
2023/10/22 02:43:30;;;;;;;5.00;1.27;;;;;;;9.27;100.00;99021.28;4989048;28;20199;-72
2023/10/22 02:45:55;;;;;;;7.17;1.60;;;;;;;9.26;100.00;99029.91;4992408;28;20270;-72
2023/10/22 02:48:22;;;;;;;6.27;1.43;;;;;;;9.24;100.00;99021.50;4992001;28;20322;-72
2023/10/22 02:50:48;;;;;;;6.20;1.73;;;;;;;9.23;100.00;99022.44;4984058;28;20614;-72
2023/10/22 02:53:13;;;;;;;4.50;1.50;;;;;;;9.16;100.00;99018.63;5004005;28;20214;-72
2023/10/22 02:55:39;;;;;;;2.77;1.10;;;;;;;9.09;100.00;99020.78;4996143;28;20182;-72
2023/10/22 02:58:05;;;;;;;6.10;1.67;;;;;;;9.04;100.00;99012.53;4996040;28;20190;-72
2023/10/22 03:00:30;;;;;;;2.60;1.17;;;;;;;9.02;100.00;99017.78;4987911;28;20273;-72
2023/10/22 03:02:56;;;;;;;3.47;1.30;;;;;;;9.01;100.00;99016.13;5006912;28;20255;-72
2023/10/22 03:05:21;;;;;;;3.57;1.30;;;;;;;9.07;100.00;99026.91;4994995;28;20190;-72
2023/10/22 03:07:46;;;;;;;4.77;1.43;;;;;;;9.03;100.00;99032.25;4995934;28;20207;-71
2023/10/22 03:10:12;;;;;;;5.13;1.43;;;;;;;9.14;100.00;99031.56;4987378;28;20179;-72
2023/10/22 03:12:37;;;;;;;3.20;1.20;;;;;;;9.01;100.00;99025.59;4993679;28;20294;-72
2023/10/22 03:15:03;;;;;;;5.73;1.30;;;;;;;9.07;100.00;99032.88;4996117;28;20249;-72
2023/10/22 03:17:29;;;;;;;3.77;1.47;;;;;;;9.11;100.00;99031.75;4994572;28;20259;-72
2023/10/22 03:19:54;;;;;;;5.37;1.43;;;;;;;9.10;100.00;99035.22;4996305;28;20694;-72
2023/10/22 03:22:19;;;;;;;5.53;1.40;;;;;;;9.09;100.00;99030.22;5000146;28;20627;-71
2023/10/22 03:24:51;;;;;;;4.03;1.50;;;;;;;9.03;100.00;99027.13;4995629;28;20187;-71
2023/10/22 03:27:17;;;;;;;5.53;2.40;;;;;;;9.03;100.00;99036.56;4995347;28;20192;-72
2023/10/22 03:29:42;;;;;;;5.20;1.33;;;;;;;9.02;100.00;99034.94;4995817;28;20183;-71
2023/10/22 03:32:09;;;;;;;7.80;1.60;;;;;;;8.90;100.00;99033.97;4979902;28;20233;-71
2023/10/22 03:34:34;;;;;;;6.07;1.53;;;;;;;8.88;100.00;99043.50;4995725;28;20180;-71
2023/10/22 03:37:04;;;;;;;4.73;1.37;;;;;;;8.94;100.00;99040.53;4995276;28;20195;-71
2023/10/22 03:39:30;;;;;;;4.50;1.63;;;;;;;8.96;100.00;99043.03;4995372;28;20271;-72
2023/10/22 03:41:55;;;;;;;6.00;1.73;;;;;;;8.98;100.00;99043.72;4999319;28;20234;-72
2023/10/22 03:44:20;;;;;;;5.00;1.47;;;;;;;9.06;100.00;99038.13;4986171;28;20211;-72
2023/10/22 03:46:46;;;;;;;5.93;1.47;;;;;;;9.06;100.00;99046.63;4995063;28;20631;-71
2023/10/22 03:49:12;;;;;;;5.93;1.87;;;;;;;9.19;100.00;99047.47;4995493;28;20518;-72
2023/10/22 03:51:37;;;;;;;7.03;1.93;;;;;;;9.20;100.00;99038.84;4996975;28;20296;-72
2023/10/22 03:54:03;;;;;;;6.20;1.37;;;;;;;9.35;100.00;99043.88;4994293;28;20706;-72
2023/10/22 03:56:28;;;;;;;6.73;1.83;;;;;;;9.47;100.00;99049.94;4993552;28;20183;-72
2023/10/22 03:58:53;;;;;;;8.93;1.73;;;;;;;9.61;100.00;99059.28;4995446;28;20241;-72
2023/10/22 04:01:19;;;;;;;6.30;1.60;;;;;;;9.68;100.00;99060.53;4985341;28;20238;-72
2023/10/22 04:03:44;;;;;;;4.03;1.23;;;;;;;9.67;100.00;99064.84;4993125;28;20574;-72
2023/10/22 04:06:09;;;;;;;9.27;2.17;;;;;;;9.82;100.00;99070.69;4993875;28;20194;-72
2023/10/22 04:08:35;;;;;;;6.13;1.73;;;;;;;9.93;100.00;99074.28;4993657;28;20635;-72
2023/10/22 04:11:01;;;;;;;4.97;1.67;;;;;;;10.02;100.00;99081.34;4992346;28;20233;-72
2023/10/22 04:13:26;;;;;;;7.87;1.60;;;;;;;10.07;100.00;99083.59;5002358;28;20210;-72
2023/10/22 04:15:52;;;;;;;5.77;1.63;;;;;;;10.07;100.00;99087.00;4993553;28;20180;-72
2023/10/22 04:18:19;;;;;;;7.43;1.63;;;;;;;10.06;100.00;99090.50;4993805;28;20694;-72
2023/10/22 04:20:44;;;;;;;7.77;1.83;;;;;;;10.10;100.00;99091.91;4986154;28;20630;-72
2023/10/22 04:23:09;;;;;;;13.40;2.40;;;;;;;10.02;100.00;99091.59;5004155;28;20627;-73
2023/10/22 04:25:40;;;;;;;6.33;1.80;;;;;;;10.01;100.00;99090.00;4994468;28;20597;-73
2023/10/22 04:28:12;;;;;;;6.00;1.63;;;;;;;10.05;100.00;99100.84;4993516;28;20266;-73
2023/10/22 04:30:39;;;;;;;7.23;1.67;;;;;;;10.05;100.00;99095.72;4988760;28;20230;-73
2023/10/22 04:33:05;;;;;;;4.87;1.90;;;;;;;10.21;100.00;99090.34;4992703;28;20206;-72
2023/10/22 04:35:34;;;;;;;8.33;2.07;;;;;;;10.33;100.00;99103.19;4993010;28;20322;-73
2023/10/22 04:38:01;;;;;;;9.30;1.77;;;;;;;10.41;100.00;99096.72;4992828;28;20230;-72
2023/10/22 04:40:31;;;;;;;8.13;2.03;;;;;;;10.26;100.00;99094.25;4985703;28;20246;-73
2023/10/22 04:42:57;;;;;;;5.07;1.80;;;;;;;10.42;100.00;99095.78;4992610;28;20194;-73
2023/10/22 04:45:23;;;;;;;6.93;1.97;;;;;;;10.45;100.00;99100.72;4994134;28;20171;-73
2023/10/22 04:47:48;;;;;;;5.97;1.80;;;;;;;10.49;100.00;99113.25;4994308;28;20271;-73
2023/10/22 04:50:13;;;;;;;5.57;1.40;;;;;;;10.58;100.00;99101.50;4985745;28;20647;-73
2023/10/22 04:52:39;;;;;;;6.63;1.93;;;;;;;10.70;100.00;99107.50;4991863;28;20226;-73
2023/10/22 04:55:05;;;;;;;7.33;1.97;;;;;;;10.75;100.00;99108.00;4993921;28;20268;-73
2023/10/22 04:57:30;;;;;;;7.00;1.77;;;;;;;10.73;100.00;99111.63;4994047;28;20318;-73
2023/10/22 04:59:56;;;;;;;8.43;2.20;;;;;;;10.62;100.00;99109.81;4993784;28;20195;-73
2023/10/22 05:02:21;;;;;;;6.63;1.90;;;;;;;10.74;100.00;99113.25;4982494;28;20238;-74
2023/10/22 05:04:49;;;;;;;5.10;1.67;;;;;;;10.68;100.00;99111.13;4993449;28;20648;-73
2023/10/22 05:07:14;;;;;;;4.17;1.90;;;;;;;10.61;100.00;99116.69;4992207;28;20270;-72
2023/10/22 05:09:39;;;;;;;4.43;1.60;;;;;;;10.74;100.00;99121.81;4992355;28;20267;-72
2023/10/22 05:12:05;;;;;;;6.47;1.70;;;;;;;10.79;100.00;99124.88;4997525;28;20313;-72
2023/10/22 05:14:31;;;;;;;4.80;1.67;;;;;;;10.81;100.00;99125.56;4991676;28;20176;-72
2023/10/22 05:16:56;;;;;;;5.73;2.20;;;;;;;10.83;100.00;99125.47;4993659;28;20184;-72
2023/10/22 05:19:22;;;;;;;5.40;1.97;;;;;;;10.77;100.00;99129.31;4993257;28;20175;-73
2023/10/22 05:21:47;;;;;;;7.83;1.90;;;;;;;10.76;100.00;99132.00;4974463;28;20266;-73
2023/10/22 05:24:12;;;;;;;11.70;2.20;;;;;;;10.80;100.00;99136.81;4993248;28;20238;-73
2023/10/22 05:26:38;;;;;;;5.10;1.87;;;;;;;10.69;100.00;99141.88;4993372;28;20191;-73
2023/10/22 05:29:03;;;;;;;9.10;2.00;;;;;;;10.71;100.00;99139.22;4993094;28;20179;-73
2023/10/22 05:31:30;;;;;;;3.97;1.53;;;;;;;10.61;100.00;99146.75;4993691;28;20222;-73
2023/10/22 05:33:55;;;;;;;6.07;1.93;;;;;;;10.66;100.00;99147.25;4991717;28;20183;-73
2023/10/22 05:36:21;;;;;;;4.20;1.70;;;;;;;10.64;100.00;99147.34;4991669;28;20194;-72
2023/10/22 05:38:50;;;;;;;8.90;1.80;;;;;;;10.45;100.00;99158.09;4992787;28;20192;-71
2023/10/22 05:41:28;;;;;;;5.47;2.10;;;;;;;10.35;100.00;99157.06;4984824;28;20233;-73
2023/10/22 05:44:01;;;;;;;12.47;2.63;;;;;;;10.43;100.00;99164.25;4991156;28;20191;-72
2023/10/22 05:46:28;;;;;;;8.50;1.80;;;;;;;10.22;100.00;99166.53;4992872;28;20183;-73
2023/10/22 05:48:53;;;;;;;10.73;2.17;;;;;;;10.40;100.00;99173.00;4991229;28;20651;-73
2023/10/22 05:51:19;;;;;;;9.53;2.50;;;;;;;10.26;100.00;99175.69;4984443;28;20229;-72
2023/10/22 05:53:44;;;;;;;4.23;1.60;;;;;;;10.25;100.00;99174.84;4997669;28;20209;-72
2023/10/22 05:56:10;;;;;;;3.97;1.50;;;;;;;10.40;100.00;99175.59;4991603;28;20187;-72
2023/10/22 05:58:35;;;;;;;5.17;1.50;;;;;;;10.41;100.00;99172.09;4992416;28;20180;-72
2023/10/22 06:01:02;;;;;;;8.63;2.03;;;;;;;10.48;100.00;99183.59;4990232;28;20648;-72
2023/10/22 06:03:28;;;;;;;7.63;2.07;;;;;;;10.51;100.00;99187.72;4999327;28;20302;-72
2023/10/22 06:05:53;;;;;;;4.90;2.07;;;;;;;10.47;100.00;99187.09;4992557;28;20262;-72
2023/10/22 06:08:18;;;;;;;7.07;2.10;;;;;;;10.72;100.00;99187.16;4992331;28;20186;-72
2023/10/22 06:10:46;;;;;;;6.40;1.50;;;;;;;10.71;100.00;99181.19;4984185;28;20240;-72
2023/10/22 06:13:12;;;;;;;7.73;1.80;;;;;;;10.80;100.00;99183.13;5001526;28;20199;-73
2023/10/22 06:15:39;;;;;;;7.17;2.07;;;;;;;10.82;100.00;99188.97;4991153;28;20238;-72
2023/10/22 06:18:05;;;;;;;11.17;2.27;;;;;;;10.80;100.00;99187.44;4991078;28;20189;-72
2023/10/22 06:20:32;;;;;;;15.33;2.47;;;;;;;10.86;100.00;99193.91;4982886;28;20238;-73
2023/10/22 06:22:58;;;;;;;8.33;2.53;;;;;;;11.06;100.00;99201.03;4990564;28;20744;-73
2023/10/22 06:25:23;;;;;;;7.67;2.00;;;;;;;11.23;100.00;99204.97;4990094;28;20274;-72
2023/10/22 06:27:49;;;;;;;9.40;2.40;;;;;;;11.30;100.00;99203.59;4990456;28;20185;-72
2023/10/22 06:30:14;;;;;;;6.33;1.77;;;;;;;11.39;100.00;99209.03;4983670;28;20190;-72
2023/10/22 06:32:40;;;;;;;6.40;1.80;;;;;;;11.50;100.00;99210.81;4989994;28;20261;-73
2023/10/22 06:35:07;;;;;;;8.87;2.20;;;;;;;11.67;100.00;99223.31;4991199;28;20214;-73
2023/10/22 06:37:32;;;;;;;7.53;2.43;;;;;;;11.83;100.00;99235.84;4992029;28;20658;-73
2023/10/22 06:40:01;;;;;;;6.27;1.90;;;;;;;11.93;100.00;99234.25;4992271;28;20187;-72
2023/10/22 06:42:26;;;;;;;8.00;1.80;;;;;;;11.96;100.00;99240.97;4977048;28;20567;-73
2023/10/22 06:44:52;;;;;;;6.80;2.20;;;;;;;12.09;100.00;99243.44;4985677;28;20232;-73
2023/10/22 06:47:17;;;;;;;9.87;2.03;;;;;;;12.11;100.00;99249.31;4992014;28;20222;-73
2023/10/22 06:49:42;;;;;;;11.43;2.50;;;;;;;12.17;100.00;99250.59;4992104;28;20191;-73
2023/10/22 06:52:08;;;;;;;8.67;2.50;;;;;;;12.11;100.00;99257.88;4996666;28;20222;-72
2023/10/22 06:54:33;;;;;;;7.00;2.40;;;;;;;12.13;100.00;99254.34;4992052;28;20180;-73
2023/10/22 06:56:59;;;;;;;5.60;2.10;;;;;;;12.23;100.00;99261.31;4992176;28;20194;-73
2023/10/22 06:59:24;;;;;;;9.17;1.87;;;;;;;12.39;100.00;99258.38;4992016;28;20184;-72
2023/10/22 07:01:50;;;;;;;7.63;2.50;;;;;;;12.58;100.00;99259.56;4994537;28;20657;-71
2023/10/22 07:04:15;;;;;;;6.57;2.30;;;;;;;12.63;100.00;99257.47;4990904;28;20576;-72
2023/10/22 07:06:40;;;;;;;5.33;1.83;;;;;;;12.90;100.00;99259.66;4991648;28;20656;-73
2023/10/22 07:09:06;;;;;;;7.60;2.60;;;;;;;13.08;100.00;99261.75;4991844;28;20191;-72
2023/10/22 07:11:33;;;;;;;6.53;1.90;;;;;;;13.06;100.00;99274.78;4983017;28;20694;-72
2023/10/22 07:13:58;;;;;;;6.33;2.00;;;;;;;13.05;100.00;99274.91;4990520;28;20537;-72
2023/10/22 07:16:24;;;;;;;6.57;2.50;;;;;;;13.08;100.00;99270.34;4991693;28;20238;-72
2023/10/22 07:18:49;;;;;;;7.60;2.63;;;;;;;13.32;100.00;99273.66;4991838;28;20255;-72
2023/10/22 07:21:14;;;;;;;9.80;2.33;;;;;;;13.36;100.00;99270.72;4983125;28;20222;-73
2023/10/22 07:23:39;;;;;;;7.90;2.17;;;;;;;13.23;100.00;99270.03;4997479;28;20521;-73
2023/10/22 07:26:05;;;;;;;7.73;2.10;;;;;;;13.49;100.00;99267.19;4991918;28;20176;-73
2023/10/22 07:28:30;;;;;;;7.43;1.77;;;;;;;13.66;100.00;99273.59;4990276;28;20207;-73
2023/10/22 07:30:55;;;;;;;6.47;2.10;;;;;;;13.73;100.00;99277.31;4968326;28;20639;-73
2023/10/22 07:33:21;;;;;;;7.10;2.00;;;;;;;13.75;100.00;99280.59;4999323;28;20565;-73
2023/10/22 07:35:56;;;;;;;5.47;1.60;;;;;;;13.82;100.00;99278.34;4990283;28;20270;-73
2023/10/22 07:38:24;;;;;;;9.53;2.00;;;;;;;13.93;100.00;99283.47;4991954;28;20277;-73
2023/10/22 07:40:50;;;;;;;8.17;2.50;;;;;;;14.18;100.00;99295.19;4990706;28;20305;-73
2023/10/22 07:43:15;;;;;;;11.43;2.60;;;;;;;14.30;100.00;99288.19;4994024;28;20284;-74
2023/10/22 07:45:41;;;;;;;10.17;2.37;;;;;;;14.45;100.00;99295.59;4994816;28;20278;-73
2023/10/22 07:48:06;;;;;;;6.33;2.50;;;;;;;14.35;100.00;99290.38;4994020;28;20274;-72
2023/10/22 07:50:31;;;;;;;4.30;1.93;;;;;;;14.01;100.00;99314.66;4986787;28;20314;-72
2023/10/22 07:52:56;;;;;;;7.77;2.27;;;;;;;13.56;100.00;99312.28;5005413;28;20257;-73
2023/10/22 07:55:22;;;;;;;7.33;2.43;;;;;;;13.27;100.00;99311.94;4994869;28;20206;-72
2023/10/22 07:57:47;;;;;;;5.47;1.50;;;;;;;13.21;100.00;99308.91;4993687;28;20180;-72
2023/10/22 08:00:14;;;;;;;8.60;2.20;;;;;;;13.27;100.00;99319.69;4984784;28;20183;-73
2023/10/22 08:02:39;;;;;;;9.90;2.33;;;;;;;13.23;100.00;99319.94;4992046;28;20223;-73
2023/10/22 08:05:05;;;;;;;5.13;2.17;;;;;;;13.37;100.00;99325.78;4994778;28;20176;-72
2023/10/22 08:07:30;;;;;;;7.83;2.40;;;;;;;13.37;100.00;99329.22;4994833;28;20179;-73
2023/10/22 08:09:55;;;;;;;7.57;2.30;;;;;;;13.43;100.00;99330.50;4994536;28;20184;-73
2023/10/22 08:12:20;;;;;;;7.33;2.07;;;;;;;13.24;100.00;99328.50;4983356;28;20249;-73
2023/10/22 08:14:46;;;;;;;7.60;2.70;;;;;;;13.39;100.00;99335.06;4989169;28;20596;-72
2023/10/22 08:17:11;;;;;;;6.33;1.80;;;;;;;13.60;100.00;99336.09;4987968;28;20183;-72
2023/10/22 08:19:36;;;;;;;5.97;1.83;;;;;;;13.45;100.00;99341.53;4994578;28;20701;-73
2023/10/22 08:22:02;;;;;;;8.20;1.97;;;;;;;13.70;100.00;99337.81;4998229;28;20241;-74
2023/10/22 08:24:27;;;;;;;9.10;2.30;;;;;;;13.75;100.00;99336.66;4994168;28;20171;-73
2023/10/22 08:26:53;;;;;;;7.80;1.80;;;;;;;13.64;100.00;99346.06;4994488;28;20662;-73
2023/10/22 08:29:18;;;;;;;6.70;1.97;;;;;;;13.50;100.00;99347.16;4992745;28;20184;-72
2023/10/22 08:31:43;;;;;;;8.77;1.93;;;;;;;13.60;100.00;99349.84;4995756;28;20239;-72
2023/10/22 08:34:09;;;;;;;8.73;2.40;;;;;;;13.52;100.00;99353.03;4995381;28;20179;-72
2023/10/22 08:36:35;;;;;;;6.53;2.00;;;;;;;13.63;100.00;99348.75;4992858;28;20665;-73
2023/10/22 08:39:00;;;;;;;8.13;2.60;;;;;;;13.86;100.00;99360.66;4992650;28;20183;-73
2023/10/22 08:41:33;;;;;;;8.07;2.97;;;;;;;13.85;100.00;99369.41;4985750;28;20230;-72
2023/10/22 08:44:02;;;;;;;7.77;2.03;;;;;;;13.80;100.00;99365.53;4997730;28;20249;-73
2023/10/22 08:46:27;;;;;;;7.57;2.30;;;;;;;13.97;100.00;99370.16;4994074;28;20269;-72
2023/10/22 08:48:53;;;;;;;7.97;2.77;;;;;;;13.90;100.00;99368.19;4993878;28;20594;-74
2023/10/22 08:51:22;;;;;;;5.47;1.93;;;;;;;13.92;100.00;99372.28;4985330;28;20238;-73
2023/10/22 08:53:47;;;;;;;9.53;2.63;;;;;;;14.19;100.00;99382.19;4992237;28;20219;-73
2023/10/22 08:56:14;;;;;;;8.37;2.40;;;;;;;14.23;100.00;99379.31;4993988;28;20184;-73
2023/10/22 08:58:39;;;;;;;8.93;2.33;;;;;;;14.19;100.00;99383.97;4993892;28;20187;-73
2023/10/22 09:01:05;;;;;;;10.07;2.30;;;;;;;14.22;100.00;99381.09;4992333;28;20586;-72
2023/10/22 09:03:32;;;;;;;5.97;1.97;;;;;;;14.73;100.00;99387.31;4991763;28;20227;-73
2023/10/22 09:05:57;;;;;;;5.83;2.17;;;;;;;15.28;100.00;99392.19;4993963;28;20611;-73
2023/10/22 09:08:40;;;;;;;8.87;2.70;;;;;;;15.41;100.00;99391.16;4992416;28;20222;-73
2023/10/22 09:11:15;;;;;;;5.03;1.87;;;;;;;15.35;100.00;99396.84;4985483;28;20265;-73
2023/10/22 09:13:41;;;;;;;8.10;2.17;;;;;;;15.03;100.00;99398.63;4992105;28;20210;-73
2023/10/22 09:16:07;;;;;;;5.90;2.13;;;;;;;15.15;100.00;99396.78;4993812;28;20179;-72
2023/10/22 09:18:33;;;;;;;6.97;2.40;;;;;;;14.87;100.00;99395.69;4993546;28;20183;-73
2023/10/22 09:21:08;;;;;;;8.33;1.93;;;;;;;14.66;100.00;99404.28;4990111;28;20236;-73
2023/10/22 09:23:33;;;;;;;5.63;2.17;;;;;;;14.57;100.00;99410.22;4991825;28;20547;-72
2023/10/22 09:25:59;;;;;;;5.43;2.10;;;;;;;14.11;100.00;99409.59;4992062;28;20180;-73
2023/10/22 09:28:27;;;;;;;8.47;2.27;;;;;;;13.95;100.00;99417.78;4993850;28;20254;-72
2023/10/22 09:31:04;;;;;;;8.57;2.03;;;;;;;14.00;100.00;99416.47;4985261;28;20223;-72
2023/10/22 09:33:33;;;;;;;7.13;2.03;;;;;;;14.04;100.00;99424.78;4984116;28;20298;-72
2023/10/22 09:36:09;;;;;;;7.57;2.13;;;;;;;14.06;100.00;99424.69;4991881;28;20232;-73
2023/10/22 09:38:48;;;;;;;7.07;2.10;;;;;;;13.88;100.00;99423.44;4991995;28;20237;-72
2023/10/22 09:41:25;;;;;;;4.57;1.70;;;;;;;14.05;100.00;99426.44;4982133;28;20236;-72
2023/10/22 09:43:51;;;;;;;6.13;1.90;;;;;;;14.35;100.00;99428.31;4997520;28;20690;-71
2023/10/22 09:46:21;;;;;;;6.63;1.90;;;;;;;13.89;100.00;99424.22;4991513;28;20702;-73
2023/10/22 09:48:50;;;;;;;7.20;2.40;;;;;;;14.04;100.00;99430.78;4992305;28;20187;-71
2023/10/22 09:51:17;;;;;;;7.33;2.53;;;;;;;13.98;100.00;99438.19;4984814;28;20230;-73
2023/10/22 09:53:51;;;;;;;5.07;2.10;;;;;;;13.98;100.00;99431.28;4997171;28;20242;-72
2023/10/22 09:56:19;;;;;;;6.60;1.97;;;;;;;14.19;100.00;99436.50;4990339;28;20281;-72
2023/10/22 09:58:47;;;;;;;9.83;2.23;;;;;;;14.13;100.00;99437.00;5001023;28;20556;-72
2023/10/22 10:01:14;;;;;;;7.23;1.87;;;;;;;14.20;100.00;99438.13;4978054;28;20234;-72
2023/10/22 10:03:41;;;;;;;7.93;2.13;;;;;;;14.40;100.00;99433.13;4990708;28;20234;-72
2023/10/22 10:06:07;;;;;;;7.47;2.43;;;;;;;14.42;100.00;99430.41;4990612;28;20183;-72
2023/10/22 10:08:38;;;;;;;6.23;2.30;;;;;;;14.50;100.00;99425.44;4992187;28;20229;-72
2023/10/22 10:11:08;;;;;;;6.10;1.90;;;;;;;14.68;100.00;99431.69;4983736;28;20241;-73
2023/10/22 10:13:35;;;;;;;6.60;2.27;;;;;;;14.63;100.00;99433.00;4990447;28;20187;-72
2023/10/22 10:16:03;;;;;;;6.30;2.23;;;;;;;14.67;100.00;99437.84;4992446;28;20206;-72
2023/10/22 10:19:08;;;;;;;7.63;2.40;;;;;;;14.69;100.00;99435.94;4990941;28;20179;-73
2023/10/22 10:21:33;;;;;;;5.53;1.70;;;;;;;14.51;100.00;99435.66;4993675;28;20273;-73
2023/10/22 10:24:16;;;;;;;8.50;2.50;;;;;;;14.65;100.00;99431.16;4990683;28;20186;-73
2023/10/22 10:26:42;;;;;;;9.03;2.20;;;;;;;14.82;100.00;99435.75;4990799;28;20179;-74
2023/10/22 10:29:07;;;;;;;7.43;2.10;;;;;;;15.05;100.00;99442.56;4990690;28;20661;-73
2023/10/22 10:31:32;;;;;;;8.13;2.30;;;;;;;15.28;100.00;99436.25;4992996;28;20653;-72
2023/10/22 10:34:02;;;;;;;6.30;1.80;;;;;;;15.51;100.00;99441.22;4990605;28;20179;-72
2023/10/22 10:36:28;;;;;;;3.70;1.60;;;;;;;15.41;100.00;99440.38;4990223;28;20203;-73
2023/10/22 10:38:54;;;;;;;6.90;1.77;;;;;;;15.16;100.00;99442.47;4973454;28;20187;-72
2023/10/22 10:41:52;;;;;;;9.03;2.10;;;;;;;15.16;100.00;99434.69;4984055;28;20309;-73
2023/10/22 10:44:17;;;;;;;6.73;1.93;;;;;;;15.52;100.00;99436.84;4983151;28;20206;-73
2023/10/22 10:46:42;;;;;;;8.80;2.13;;;;;;;15.70;100.00;99434.47;4990191;28;20207;-72
2023/10/22 10:49:08;;;;;;;5.17;1.70;;;;;;;15.89;100.00;99439.72;4992290;28;20583;-70
2023/10/22 10:51:33;;;;;;;5.27;2.00;;;;;;;15.91;100.00;99442.16;4991645;28;20233;-72
2023/10/22 10:54:02;;;;;;;6.13;2.43;;;;;;;16.34;100.00;99440.97;4992099;28;20184;-71
2023/10/22 10:56:46;;;;;;;5.63;1.90;;;;;;;16.57;100.00;99440.66;4990603;28;20214;-73
2023/10/22 10:59:11;;;;;;;8.50;1.87;;;;;;;16.68;100.00;99448.31;4991936;28;20279;-71
2023/10/22 11:01:36;;;;;;;4.93;2.03;;;;;;;16.24;100.00;99448.75;4992984;28;20987;-71
2023/10/22 11:04:08;;;;;;;7.20;2.00;;;;;;;16.02;100.00;99447.22;4995244;28;20188;-71
2023/10/22 11:06:33;;;;;;;8.83;2.20;;;;;;;16.14;100.00;99446.16;4991588;28;20182;-72
2023/10/22 11:08:59;;;;;;;7.67;1.87;;;;;;;16.07;100.00;99450.22;4990597;28;20175;-72
2023/10/22 11:11:24;;;;;;;5.47;2.10;;;;;;;15.90;100.00;99443.13;4991460;28;20216;-73
2023/10/22 11:13:50;;;;;;;7.03;2.00;;;;;;;16.06;100.00;99453.81;4998778;28;20640;-72
2023/10/22 11:16:15;;;;;;;6.37;2.00;;;;;;;16.06;100.00;99447.78;4996174;28;20226;-71
2023/10/22 11:18:54;;;;;;;3.77;1.50;;;;;;;16.24;100.00;99442.75;4995655;28;20643;-70
2023/10/22 11:21:20;;;;;;;7.30;2.17;;;;;;;16.37;100.00;99447.66;4995081;28;20718;-71
2023/10/22 11:23:45;;;;;;;6.43;2.00;;;;;;;16.48;100.00;99450.09;4993695;28;20548;-74